Time;durP1;ratioP1;P1;durP2;ratioP2;P2;SDS_P1;SDS_P2;PMS_P1;PMS_P2;Temp;Humidity;BMP_temperature;BMP_pressure;BME280_temperature;BME280_humidity;BME280_pressure;Samples;Min_cycle;Max_cycle;Signal;HPM_P1;HPM_P2
2022/10/07 03:01:29;;;;;;;1.00;0.90;;;19.60;49.80;;;;;;5458827;23;45857;-68
2022/10/07 03:03:55;;;;;;;1.83;1.02;;;19.60;50.40;;;;;;4877589;28;45577;-64
2022/10/07 03:06:21;;;;;;;1.33;0.88;;;19.60;49.70;;;;;;4880280;28;46340;-65
2022/10/07 03:08:47;;;;;;;1.80;0.98;;;19.60;49.70;;;;;;4895935;28;45403;-64
2022/10/07 03:11:12;;;;;;;1.77;1.13;;;19.60;49.70;;;;;;4877798;28;45127;-65
2022/10/07 03:13:38;;;;;;;1.58;1.10;;;19.60;49.70;;;;;;4883830;28;48341;-65
2022/10/07 03:16:04;;;;;;;1.00;0.90;;;19.60;49.70;;;;;;4880346;28;45635;-65
2022/10/07 03:18:30;;;;;;;1.33;1.10;;;19.50;49.70;;;;;;4897898;28;45683;-64
2022/10/07 03:20:56;;;;;;;1.50;0.90;;;19.50;49.70;;;;;;4898120;28;45544;-65
2022/10/07 03:23:25;;;;;;;0.95;0.80;;;19.60;49.80;;;;;;4914147;28;45559;-67
2022/10/07 03:25:51;;;;;;;1.10;0.98;;;19.60;49.80;;;;;;4913651;28;45374;-63
2022/10/07 03:28:19;;;;;;;1.00;0.90;;;19.50;49.70;;;;;;4912865;28;44888;-66
2022/10/07 03:30:46;;;;;;;1.50;1.13;;;19.50;49.70;;;;;;4877173;28;45290;-66
2022/10/07 03:33:12;;;;;;;1.50;1.10;;;19.50;49.70;;;;;;4914768;28;46433;-67
2022/10/07 03:35:38;;;;;;;1.10;1.00;;;19.50;49.70;;;;;;4909930;28;45214;-64
2022/10/07 03:38:07;;;;;;;1.05;0.90;;;19.50;49.70;;;;;;4917428;28;44588;-66
2022/10/07 03:40:33;;;;;;;1.90;0.98;;;19.50;49.70;;;;;;4915482;28;45765;-65
2022/10/07 03:42:58;;;;;;;1.67;0.93;;;19.60;49.80;;;;;;4911555;28;46305;-68
2022/10/07 03:45:24;;;;;;;0.93;0.80;;;19.50;49.70;;;;;;4913973;28;45174;-64
2022/10/07 03:47:49;;;;;;;2.13;1.08;;;19.50;49.70;;;;;;4912663;28;45194;-64
2022/10/07 03:50:15;;;;;;;1.48;1.20;;;19.50;49.70;;;;;;4912010;28;44826;-64
2022/10/07 03:52:40;;;;;;;1.60;1.10;;;19.50;49.70;;;;;;4900640;28;46137;-65
2022/10/07 03:55:07;;;;;;;1.02;0.80;;;19.50;49.70;;;;;;4915040;28;45393;-65
2022/10/07 03:57:52;;;;;;;1.40;1.00;;;19.50;49.70;;;;;;4897701;28;45580;-65
2022/10/07 04:00:19;;;;;;;1.33;1.10;;;19.50;49.70;;;;;;4911998;28;45520;-67
2022/10/07 04:02:46;;;;;;;1.63;1.10;;;19.50;49.80;;;;;;4897428;28;46608;-65
2022/10/07 04:05:14;;;;;;;1.38;1.05;;;19.50;49.80;;;;;;4897027;28;45461;-65
2022/10/07 04:07:47;;;;;;;1.42;1.02;;;19.50;49.70;;;;;;4890678;28;44681;-65
2022/10/07 04:10:14;;;;;;;1.40;1.10;;;19.50;49.80;;;;;;4893689;28;45542;-66
2022/10/07 04:12:40;;;;;;;1.40;0.93;;;19.50;49.70;;;;;;4914870;28;46008;-65
2022/10/07 04:15:06;;;;;;;0.85;0.73;;;19.50;49.70;;;;;;4894706;28;44840;-68
2022/10/07 04:17:32;;;;;;;1.33;0.90;;;19.50;49.70;;;;;;4910980;28;44664;-68
2022/10/07 04:19:57;;;;;;;1.10;0.80;;;19.50;50.30;;;;;;4888182;28;45402;-65
2022/10/07 04:22:23;;;;;;;1.00;0.95;;;19.50;49.70;;;;;;4894787;28;45265;-65
2022/10/07 04:27:33;;;;;;;1.88;1.00;;;19.50;50.30;;;;;;4877992;28;45512;-67
2022/10/07 04:29:59;;;;;;;1.40;1.10;;;19.50;49.70;;;;;;4890005;28;45272;-66
2022/10/07 04:32:24;;;;;;;1.33;0.88;;;19.50;49.70;;;;;;4908781;28;46324;-64
2022/10/07 04:34:51;;;;;;;1.25;0.85;;;19.50;49.70;;;;;;4914400;28;45005;-65
2022/10/07 04:37:16;;;;;;;2.05;1.00;;;19.40;49.70;;;;;;4892887;28;45121;-67
2022/10/07 04:39:42;;;;;;;1.60;1.02;;;19.50;50.40;;;;;;4907949;28;44858;-64
2022/10/07 04:43:17;;;;;;;1.48;1.00;;;19.40;49.70;;;;;;4896298;28;47453;-65
2022/10/07 04:44:53;;;;;;;1.70;0.95;;;19.40;49.70;;;;;;4911230;28;45047;-65
2022/10/07 04:47:19;;;;;;;2.20;1.27;;;19.40;49.70;;;;;;4914657;28;45050;-65
2022/10/07 04:49:44;;;;;;;1.88;1.17;;;19.40;49.70;;;;;;4910676;28;44959;-65
2022/10/07 04:52:10;;;;;;;1.75;1.05;;;19.40;49.70;;;;;;4911255;28;46780;-66
2022/10/07 04:54:38;;;;;;;0.90;0.80;;;19.40;49.70;;;;;;4913545;28;45583;-65
2022/10/07 04:57:04;;;;;;;1.02;0.80;;;19.40;49.70;;;;;;4908538;28;45196;-65
2022/10/07 04:59:29;;;;;;;1.35;0.88;;;19.40;49.70;;;;;;4907832;28;45408;-65
2022/10/07 05:01:55;;;;;;;1.88;1.00;;;19.40;49.80;;;;;;4896356;28;45336;-65
2022/10/07 05:04:20;;;;;;;0.98;0.88;;;19.40;49.70;;;;;;4898252;28;45186;-68
2022/10/07 05:06:46;;;;;;;1.85;0.98;;;19.40;49.70;;;;;;4904922;28;45861;-63
2022/10/07 05:09:11;;;;;;;1.30;1.10;;;19.40;49.70;;;;;;4911929;28;45709;-65
2022/10/07 05:11:37;;;;;;;0.70;0.65;;;19.40;49.70;;;;;;4890523;28;45894;-64
2022/10/07 05:14:02;;;;;;;1.13;0.90;;;19.40;49.80;;;;;;4910002;28;45461;-65
2022/10/07 05:16:28;;;;;;;1.25;1.05;;;19.40;49.70;;;;;;4912379;28;45619;-64
2022/10/07 05:18:54;;;;;;;1.90;1.00;;;19.40;49.80;;;;;;4912841;28;44812;-65
2022/10/07 05:21:20;;;;;;;1.42;0.93;;;19.40;49.80;;;;;;4895972;28;46023;-66
2022/10/07 05:23:46;;;;;;;2.10;1.05;;;19.40;49.70;;;;;;4858754;28;45372;-64
2022/10/07 05:26:13;;;;;;;1.10;0.95;;;19.40;49.80;;;;;;4914831;28;45623;-65
2022/10/07 05:28:39;;;;;;;1.02;0.93;;;19.40;49.80;;;;;;4913299;28;45646;-66
2022/10/07 05:31:09;;;;;;;1.90;1.05;;;19.30;49.70;;;;;;4879666;28;46767;-65
2022/10/07 05:33:35;;;;;;;0.77;0.73;;;19.40;49.80;;;;;;4882612;28;45130;-65
2022/10/07 05:36:01;;;;;;;1.92;1.33;;;19.30;49.70;;;;;;4909183;28;45623;-64
2022/10/07 05:38:27;;;;;;;1.67;1.15;;;19.40;49.80;;;;;;4898967;28;45496;-65
2022/10/07 05:41:00;;;;;;;1.52;0.98;;;19.40;49.80;;;;;;4885855;28;45102;-66
2022/10/07 05:43:26;;;;;;;;;;;19.40;49.70;;;;;;4914537;28;45327;-64
2022/10/07 05:46:03;;;;;;;1.00;0.90;;;19.40;49.80;;;;;;4908447;28;44766;-65
2022/10/07 05:48:29;;;;;;;1.90;1.10;;;19.30;49.80;;;;;;4909746;28;45450;-67
2022/10/07 05:50:58;;;;;;;0.82;0.70;;;19.30;49.70;;;;;;4915373;28;46212;-65
2022/10/07 05:53:25;;;;;;;1.60;0.93;;;19.30;49.70;;;;;;4897734;28;45371;-64
2022/10/07 05:55:50;;;;;;;0.70;0.60;;;19.30;49.70;;;;;;4919714;28;45479;-65
2022/10/07 05:58:17;;;;;;;2.00;0.88;;;19.30;49.70;;;;;;4918407;28;46163;-65
2022/10/07 06:00:56;;;;;;;1.00;0.90;;;19.40;49.80;;;;;;4885065;28;47089;-65
2022/10/07 06:03:22;;;;;;;1.02;0.93;;;19.30;49.70;;;;;;4913502;28;45173;-66
2022/10/07 06:05:49;;;;;;;1.08;0.93;;;19.30;49.70;;;;;;4905235;28;45306;-65
2022/10/07 06:08:17;;;;;;;1.08;0.90;;;19.30;49.70;;;;;;4903011;28;44865;-65
2022/10/07 06:13:26;;;;;;;1.13;0.85;;;19.30;49.80;;;;;;4917250;28;45425;-66
2022/10/07 06:15:52;;;;;;;2.10;1.13;;;19.30;49.80;;;;;;4920023;28;45481;-65
2022/10/07 06:18:18;;;;;;;1.25;0.80;;;19.30;49.80;;;;;;4909890;28;45201;-66
2022/10/07 06:20:53;;;;;;;1.90;1.23;;;19.30;49.80;;;;;;4903432;28;46840;-67
2022/10/07 06:23:18;;;;;;;1.33;0.80;;;19.30;49.80;;;;;;4905589;28;45434;-65
2022/10/07 06:25:51;;;;;;;0.88;0.88;;;19.30;49.80;;;;;;4925875;28;44923;-65
2022/10/07 06:28:17;;;;;;;1.52;0.85;;;19.30;49.90;;;;;;4888374;28;44938;-65
2022/10/07 06:30:43;;;;;;;1.42;0.85;;;19.30;49.80;;;;;;4915572;28;46059;-66
2022/10/07 06:33:09;;;;;;;1.33;0.95;;;19.30;49.80;;;;;;4892699;28;45186;-63
2022/10/07 06:35:34;;;;;;;1.50;0.95;;;19.30;49.70;;;;;;4923682;28;45453;-63
2022/10/07 06:38:00;;;;;;;1.05;0.95;;;19.40;49.70;;;;;;4922899;28;45451;-63
2022/10/07 06:40:25;;;;;;;1.08;0.98;;;19.50;49.60;;;;;;4914202;28;45993;-64
2022/10/07 06:42:51;;;;;;;1.90;0.90;;;19.60;49.40;;;;;;4916120;28;45196;-64
2022/10/07 06:45:16;;;;;;;1.27;0.93;;;19.80;49.20;;;;;;4922878;28;45160;-63
2022/10/07 06:47:42;;;;;;;1.30;1.05;;;19.90;48.90;;;;;;4920483;28;45145;-63
2022/10/07 06:50:07;;;;;;;3.40;1.05;;;20.10;48.70;;;;;;4927789;28;45458;-64
2022/10/07 06:52:33;;;;;;;3.30;0.85;;;20.30;48.50;;;;;;4903931;28;45377;-64
2022/10/07 06:54:59;;;;;;;0.68;0.60;;;20.50;48.30;;;;;;4902414;28;45170;-62
2022/10/07 06:57:24;;;;;;;1.42;0.80;;;20.70;48.20;;;;;;4918353;28;45629;-64
2022/10/07 06:59:50;;;;;;;1.52;0.70;;;20.80;48.00;;;;;;4917221;28;45585;-62
2022/10/07 07:02:16;;;;;;;1.08;0.75;;;20.90;47.90;;;;;;4917254;28;44975;-62
2022/10/07 07:04:42;;;;;;;1.23;0.80;;;21.00;47.80;;;;;;4914656;28;45570;-62
2022/10/07 07:07:08;;;;;;;0.82;0.70;;;21.20;47.70;;;;;;4924465;28;45284;-63
2022/10/07 07:09:33;;;;;;;0.93;0.75;;;21.30;47.60;;;;;;4893434;28;46912;-63
2022/10/07 07:11:59;;;;;;;0.80;0.68;;;21.40;47.40;;;;;;4912062;28;45837;-63
2022/10/07 07:14:24;;;;;;;1.45;0.93;;;21.50;47.30;;;;;;4915130;28;44927;-64
2022/10/07 07:16:51;;;;;;;1.15;0.90;;;21.70;47.20;;;;;;4900119;28;45126;-63
2022/10/07 07:19:16;;;;;;;1.95;0.90;;;21.80;47.10;;;;;;4913833;28;46085;-64
2022/10/07 07:21:42;;;;;;;0.70;0.70;;;22.00;47.00;;;;;;4917494;28;44871;-63
2022/10/07 07:24:08;;;;;;;0.60;0.60;;;22.00;46.80;;;;;;4894515;28;45502;-63
2022/10/07 07:26:34;;;;;;;;;;;22.20;46.70;;;;;;4897777;28;45866;-64
2022/10/07 07:29:03;;;;;;;0.75;0.60;;;22.30;46.40;;;;;;4911651;28;45350;-64
2022/10/07 07:31:29;;;;;;;0.80;0.68;;;22.40;46.60;;;;;;4913531;28;44827;-64
2022/10/07 07:33:56;;;;;;;1.10;0.82;;;22.40;46.50;;;;;;4897937;28;45379;-65
2022/10/07 07:36:23;;;;;;;1.00;0.60;;;22.50;46.40;;;;;;4876608;28;45445;-65
2022/10/07 07:38:52;;;;;;;1.02;0.68;;;22.60;46.20;;;;;;4895289;28;45458;-64
2022/10/07 07:41:28;;;;;;;1.30;0.70;;;22.70;46.20;;;;;;4893394;28;45258;-64
2022/10/07 07:43:56;;;;;;;0.95;0.80;;;22.80;46.00;;;;;;4899940;28;45424;-65
2022/10/07 07:46:22;;;;;;;;;;;22.90;46.00;;;;;;4917749;28;44751;-62
2022/10/07 07:48:48;;;;;;;;;;;22.90;45.50;;;;;;4913439;28;46247;-61
2022/10/07 07:51:16;;;;;;;;;;;23.00;45.40;;;;;;4906320;28;45503;-63
2022/10/07 07:53:42;;;;;;;;;;;23.10;45.40;;;;;;4892200;28;45346;-64
2022/10/07 07:56:07;;;;;;;;;;;23.10;45.20;;;;;;4913937;28;45664;-62
2022/10/07 07:58:33;;;;;;;;;;;23.20;45.10;;;;;;4883733;28;45955;-60
2022/10/07 08:00:59;;;;;;;;;;;23.30;45.00;;;;;;4915339;28;45473;-64
2022/10/07 08:03:25;;;;;;;;;;;23.30;45.00;;;;;;4896227;28;45184;-65
2022/10/07 08:05:51;;;;;;;;;;;23.40;44.90;;;;;;4922695;28;45346;-66
2022/10/07 08:08:17;;;;;;;;;;;23.40;44.90;;;;;;4892118;28;44967;-63
2022/10/07 08:10:43;;;;;;;;;;;23.50;44.90;;;;;;4908116;28;44917;-63
2022/10/07 08:13:08;;;;;;;;;;;23.50;44.80;;;;;;4913652;28;45250;-64
2022/10/07 08:15:34;;;;;;;;;;;23.60;44.80;;;;;;4912327;28;45628;-62
2022/10/07 08:18:01;;;;;;;;;;;23.60;44.70;;;;;;4913858;28;47177;-59
2022/10/07 08:20:26;;;;;;;;;;;23.70;44.70;;;;;;4910210;28;45244;-63
2022/10/07 08:22:52;;;;;;;;;;;23.70;44.60;;;;;;4892906;28;45637;-62
2022/10/07 08:25:17;;;;;;;;;;;23.70;44.60;;;;;;4908663;28;45260;-62
2022/10/07 08:27:43;;;;;;;;;;;23.80;44.60;;;;;;4912157;28;47156;-62
2022/10/07 08:30:08;;;;;;;;;;;23.80;44.50;;;;;;4915161;28;45325;-64
2022/10/07 08:32:34;;;;;;;;;;;23.80;44.40;;;;;;4910122;28;45622;-62
2022/10/07 08:34:59;;;;;;;;;;;23.90;44.50;;;;;;4915994;28;45388;-65
2022/10/07 08:37:25;;;;;;;;;;;23.90;44.40;;;;;;4899736;28;47076;-61
2022/10/07 08:39:50;;;;;;;;;;;24.00;44.30;;;;;;4914279;28;45184;-63
2022/10/07 08:42:31;;;;;;;;;;;24.10;44.30;;;;;;4906717;28;45658;-61
2022/10/07 08:44:58;;;;;;;;;;;24.10;44.20;;;;;;4909982;28;45512;-62
2022/10/07 08:47:42;;;;;;;;;;;24.20;44.20;;;;;;4897781;28;46171;-64
2022/10/07 08:50:08;;;;;;;;;;;24.20;44.10;;;;;;4889159;28;45622;-63
2022/10/07 08:52:37;;;;;;;;;;;24.30;44.10;;;;;;4921561;28;45176;-63
2022/10/07 08:55:23;;;;;;;;;;;24.30;44.00;;;;;;4918484;28;45571;-63
2022/10/07 08:58:10;;;;;;;;;;;24.40;44.00;;;;;;4906304;28;45776;-60
2022/10/07 09:00:39;;;;;;;;;;;24.40;43.80;;;;;;4874833;28;45354;-60
2022/10/07 09:03:24;;;;;;;;;;;24.40;43.80;;;;;;4886593;28;45216;-57
2022/10/07 09:05:49;;;;;;;;;;;24.50;43.80;;;;;;4916624;28;45478;-60
2022/10/07 09:08:17;;;;;;;;;;;24.50;43.80;;;;;;4899485;29;45360;-59
2022/10/07 09:10:44;;;;;;;;;;;24.60;43.70;;;;;;4918370;28;44897;-60
2022/10/07 09:13:10;;;;;;;;;;;24.60;43.60;;;;;;4916705;28;45733;-62
2022/10/07 09:15:37;;;;;;;;;;;24.70;43.50;;;;;;4918249;28;45974;-60
2022/10/07 09:18:05;;;;;;;;;;;24.70;43.50;;;;;;4904901;28;46616;-57
2022/10/07 09:20:35;;;;;;;;;;;24.70;43.40;;;;;;4896227;28;45324;-61
2022/10/07 09:23:01;;;;;;;;;;;24.70;43.40;;;;;;4896667;28;45363;-63
2022/10/07 09:25:27;;;;;;;;;;;24.70;43.30;;;;;;4904095;28;45645;-61
2022/10/07 09:27:53;;;;;;;;;;;24.70;43.30;;;;;;4913229;28;46287;-61
2022/10/07 09:30:19;;;;;;;;;;;24.80;43.30;;;;;;4915210;28;45459;-61
2022/10/07 09:32:45;;;;;;;;;;;24.80;43.30;;;;;;4899540;28;44954;-61
2022/10/07 09:35:16;;;;;;;;;;;24.80;43.20;;;;;;4903118;28;45744;-59
2022/10/07 09:38:08;;;;;;;;;;;24.80;43.20;;;;;;4920692;28;46563;-61
2022/10/07 09:41:13;;;;;;;;;;;24.80;43.20;;;;;;4905481;28;45467;-61
2022/10/07 09:43:22;;;;;;;;;;;24.90;43.30;;;;;;4902029;28;45637;-61
2022/10/07 09:45:48;;;;;;;;;;;24.90;43.20;;;;;;4914126;28;45656;-61
2022/10/07 09:48:18;;;;;;;;;;;24.90;43.20;;;;;;4913889;28;45955;-61
2022/10/07 09:50:43;;;;;;;;;;;24.90;43.20;;;;;;4892562;28;45551;-61
2022/10/07 09:53:26;;;;;;;;;;;25.00;43.20;;;;;;4898095;28;45193;-62
2022/10/07 09:55:52;;;;;;;;;;;25.00;43.20;;;;;;4910210;28;45391;-61
2022/10/07 09:58:19;;;;;;;;;;;25.00;43.20;;;;;;4899760;28;45582;-63
2022/10/07 10:00:45;;;;;;;;;;;25.00;43.10;;;;;;4910424;28;44723;-62
2022/10/07 10:03:11;;;;;;;;;;;25.10;43.10;;;;;;4915708;28;45587;-61
2022/10/07 10:05:50;;;;;;;;;;;25.10;43.10;;;;;;4896696;28;45068;-60
2022/10/07 10:08:16;;;;;;;;;;;25.20;43.00;;;;;;4909014;28;44949;-61
2022/10/07 10:10:41;;;;;;;;;;;25.20;42.90;;;;;;4911830;28;47706;-62
2022/10/07 10:13:09;;;;;;;;;;;25.20;42.80;;;;;;4894691;28;45546;-62
2022/10/07 10:15:34;;;;;;;;;;;25.30;42.90;;;;;;4911404;28;45478;-62
2022/10/07 10:18:00;;;;;;;;;;;25.30;42.80;;;;;;4913084;28;46118;-63
2022/10/07 10:20:25;;;;;;;;;;;25.30;42.70;;;;;;4916577;28;45568;-62
2022/10/07 10:22:51;;;;;;;;;;;25.30;42.80;;;;;;4918752;28;45197;-60
2022/10/07 10:28:02;;;;;;;;;;;25.30;42.80;;;;;;4901181;28;46091;-60
2022/10/07 10:30:28;;;;;;;;;;;25.30;42.70;;;;;;4908995;28;44711;-60
2022/10/07 10:33:13;;;;;;;;;;;25.30;42.70;;;;;;4900135;28;45140;-62
2022/10/07 10:35:45;;;;;;;;;;;25.30;42.60;;;;;;4909407;28;45049;-59
2022/10/07 10:38:22;;;;;;;;;;;25.30;42.60;;;;;;4911417;28;46001;-63
2022/10/07 10:41:03;;;;;;;;;;;25.40;42.60;;;;;;4900852;28;45141;-60
2022/10/07 10:43:29;;;;;;;;;;;25.40;42.60;;;;;;4915782;28;45563;-59
2022/10/07 10:45:54;;;;;;;;;;;25.40;42.60;;;;;;4914575;28;47208;-57
2022/10/07 10:48:32;;;;;;;;;;;25.40;42.50;;;;;;4904967;28;45974;-62
2022/10/07 10:51:16;;;;;;;;;;;25.40;42.50;;;;;;4896324;28;45290;-61
2022/10/07 10:53:44;;;;;;;;;;;25.40;42.50;;;;;;4918712;28;45217;-61
2022/10/07 10:56:22;;;;;;;;;;;25.40;42.50;;;;;;4923339;28;44852;-63
2022/10/07 10:59:08;;;;;;;;;;;25.40;42.50;;;;;;4910093;28;46004;-60
2022/10/07 11:01:37;;;;;;;;;;;25.50;42.50;;;;;;4921462;28;45696;-59
2022/10/07 11:04:23;;;;;;;;;;;25.50;42.50;;;;;;4918164;28;45343;-61
2022/10/07 11:07:03;;;;;;;;;;;25.60;42.50;;;;;;4901602;28;44731;-62
2022/10/07 11:09:46;;;;;;;;;;;25.50;42.40;;;;;;4899085;28;46201;-62
2022/10/07 11:12:19;;;;;;;;;;;25.60;42.40;;;;;;4893825;28;45688;-63
2022/10/07 11:14:45;;;;;;;;;;;25.60;42.40;;;;;;4900010;28;45325;-60
2022/10/07 11:17:11;;;;;;;;;;;25.60;42.40;;;;;;4903747;28;45644;-62
2022/10/07 11:19:37;;;;;;;;;;;25.70;42.50;;;;;;4893199;28;45953;-62
2022/10/07 11:22:03;;;;;;;;;;;25.70;42.40;;;;;;4914642;28;45477;-61
2022/10/07 11:24:28;;;;;;;;;;;25.70;42.40;;;;;;4882967;28;44604;-62
2022/10/07 11:26:55;;;;;;;;;;;25.70;42.30;;;;;;4908945;28;45639;-62
2022/10/07 11:29:59;;;;;;;;;;;25.70;42.30;;;;;;4920017;28;45997;-61
2022/10/07 11:32:43;;;;;;;;;;;25.80;42.30;;;;;;4870113;29;45300;-61
2022/10/07 11:35:27;;;;;;;;;;;25.80;42.30;;;;;;4856834;29;44893;-62
2022/10/07 11:38:05;;;;;;;;;;;25.80;42.30;;;;;;4897124;28;45589;-61
2022/10/07 11:40:31;;;;;;;;;;;25.80;42.30;;;;;;4893902;29;46164;-62
2022/10/07 11:42:57;;;;;;;;;;;25.90;42.30;;;;;;4895443;28;44958;-62
2022/10/07 11:45:27;;;;;;;;;;;25.90;42.20;;;;;;4901215;28;45205;-62
2022/10/07 11:47:54;;;;;;;;;;;25.90;42.30;;;;;;4896021;28;45109;-61
2022/10/07 11:50:28;;;;;;;;;;;25.90;42.20;;;;;;4897406;28;46267;-63
2022/10/07 11:52:54;;;;;;;;;;;25.90;42.10;;;;;;4923739;28;45561;-60
2022/10/07 11:55:19;;;;;;;;;;;26.00;42.20;;;;;;4912745;28;44973;-63
2022/10/07 11:57:48;;;;;;;;;;;26.00;42.20;;;;;;4914372;28;45236;-61
2022/10/07 12:00:27;;;;;;;;;;;26.00;42.10;;;;;;4901500;28;45410;-62
2022/10/07 12:02:53;;;;;;;;;;;26.00;42.20;;;;;;4899089;28;45451;-59
2022/10/07 12:05:34;;;;;;;;;;;26.00;42.10;;;;;;4923298;28;45490;-62
2022/10/07 12:08:19;;;;;;;;;;;26.10;42.20;;;;;;4912342;28;45173;-59
2022/10/07 12:10:44;;;;;;;;;;;26.10;42.20;;;;;;4912210;28;46016;-62
2022/10/07 12:13:09;;;;;;;;;;;26.20;42.20;;;;;;4922055;28;45561;-64
2022/10/07 12:15:38;;;;;;;;;;;26.10;42.10;;;;;;4901658;28;45435;-61
2022/10/07 12:18:03;;;;;;;;;;;26.20;42.10;;;;;;4916431;28;45369;-63
2022/10/07 12:20:31;;;;;;;;;;;26.20;42.10;;;;;;4921091;28;45950;-63
2022/10/07 12:23:15;;;;;;;;;;;26.20;42.60;;;;;;4914435;28;44784;-62
2022/10/07 12:25:41;;;;;;;;;;;26.20;42.00;;;;;;4914594;28;45548;-64
2022/10/07 12:28:13;;;;;;;;;;;26.30;42.00;;;;;;4914548;28;45556;-62
2022/10/07 12:30:41;;;;;;;;;;;26.30;42.10;;;;;;4894955;28;45961;-63
2022/10/07 12:33:13;;;;;;;;;;;26.30;42.00;;;;;;4916377;28;45294;-63
2022/10/07 12:35:40;;;;;;;;;;;26.30;42.00;;;;;;4915165;28;45783;-62
2022/10/07 12:38:15;;;;;;;;;;;26.40;42.00;;;;;;4914956;28;45510;-64
2022/10/07 12:40:42;;;;;;;;;;;26.40;42.00;;;;;;4907058;28;46502;-65
2022/10/07 12:43:20;;;;;;;;;;;26.40;41.90;;;;;;4893464;28;45447;-65
2022/10/07 12:45:46;;;;;;;;;;;26.40;41.90;;;;;;4906552;28;45194;-63
2022/10/07 12:48:15;;;;;;;;;;;26.40;41.90;;;;;;4899120;28;45499;-63
2022/10/07 12:50:41;;;;;;;;;;;26.50;41.90;;;;;;4915557;28;45572;-63
2022/10/07 12:53:09;;;;;;;;;;;26.50;41.90;;;;;;4902271;28;45350;-62
2022/10/07 12:55:37;;;;;;;;;;;26.50;41.80;;;;;;4900253;28;45406;-62
2022/10/07 13:01:13;;;;;;;;;;;26.50;41.80;;;;;;4880526;28;46026;-61
2022/10/07 13:03:41;;;;;;;;;;;26.40;42.00;;;;;;4893241;28;45490;-61
2022/10/07 13:06:27;;;;;;;;;;;26.30;42.10;;;;;;4907513;28;45371;-62
2022/10/07 13:09:01;;;;;;;;;;;26.30;42.20;;;;;;4873062;28;45174;-61
2022/10/07 13:11:36;;;;;;;;;;;26.20;42.30;;;;;;4908058;28;45930;-64
2022/10/07 13:14:14;;;;;;;;;;;26.20;42.40;;;;;;4907034;28;44638;-62
2022/10/07 13:16:43;;;;;;;;;;;26.10;42.50;;;;;;4911284;28;45443;-64
2022/10/07 13:19:14;;;;;;;;;;;26.00;42.60;;;;;;4907661;28;45013;-63
2022/10/07 13:21:40;;;;;;;;;;;26.00;42.70;;;;;;4909557;28;46926;-62
2022/10/07 13:24:11;;;;;;;;;;;26.00;42.90;;;;;;4888970;28;45284;-61
2022/10/07 13:26:37;;;;;;;;;;;25.90;43.00;;;;;;4902338;28;45057;-62
2022/10/07 13:29:02;;;;;;;;;;;25.80;43.00;;;;;;4896450;28;45604;-62
2022/10/07 13:31:29;;;;;;;;;;;25.80;43.10;;;;;;4893505;28;47908;-62
2022/10/07 13:33:55;;;;;;;;;;;25.70;43.30;;;;;;4914112;28;45128;-62
2022/10/07 13:36:24;;;;;;;;;;;25.60;43.30;;;;;;4917673;28;45527;-62
2022/10/07 13:38:52;;;;;;;;;;;25.60;43.40;;;;;;4903437;28;46184;-62
2022/10/07 13:41:20;;;;;;;;;;;25.50;43.50;;;;;;4903488;28;45222;-60
2022/10/07 13:43:47;;;;;;;;;;;25.50;43.60;;;;;;4920808;28;45177;-62
2022/10/07 13:46:13;;;;;;;;;;;25.40;43.60;;;;;;4906864;28;45466;-62
2022/10/07 13:48:41;;;;;;;;;;;25.40;43.70;;;;;;4897766;28;45732;-62
2022/10/07 13:51:06;;;;;;;;;;;25.30;43.80;;;;;;4902196;28;47031;-62
2022/10/07 13:53:35;;;;;;;;;;;25.30;43.80;;;;;;4907352;28;44862;-61
2022/10/07 13:56:06;;;;;;;;;;;25.30;43.80;;;;;;4917444;28;44707;-62
2022/10/07 13:58:32;;;;;;;;;;;25.20;43.90;;;;;;4927484;28;45110;-63
2022/10/07 14:00:57;;;;;;;;;;;25.10;43.90;;;;;;4911434;28;46012;-63
2022/10/07 14:03:23;;;;;;;;;;;25.10;44.00;;;;;;4904958;28;45265;-64
2022/10/07 14:05:51;;;;;;;;;;;25.00;44.00;;;;;;4894225;28;45505;-63
2022/10/07 14:08:18;;;;;;;;;;;25.00;44.10;;;;;;4913574;28;45472;-63
2022/10/07 14:10:51;;;;;;;;;;;24.90;44.20;;;;;;4914502;28;45127;-63
2022/10/07 14:13:17;;;;;;;;;;;24.90;44.30;;;;;;4912226;28;44742;-63
2022/10/07 14:15:46;;;;;;;;;;;24.80;44.30;;;;;;4895829;28;45011;-63
2022/10/07 14:18:12;;;;;;;;;;;24.80;44.30;;;;;;4900726;28;45459;-63
2022/10/07 14:20:39;;;;;;;;;;;24.80;44.40;;;;;;4897815;28;47030;-63
2022/10/07 14:23:05;;;;;;;;;;;24.70;44.50;;;;;;4911979;28;45142;-62
2022/10/07 14:25:35;;;;;;;;;;;24.70;44.60;;;;;;4896697;28;45727;-62
2022/10/07 14:28:06;;;;;;;;;;;24.70;44.60;;;;;;4897082;28;45237;-62
2022/10/07 14:36:09;;;;;;;;;;;24.60;44.80;;;;;;4909111;28;45595;-62
2022/10/07 14:38:34;;;;;;;;;;;24.50;44.90;;;;;;4913361;28;45577;-63
2022/10/07 14:41:00;;;;;;;;;;;24.50;44.90;;;;;;4914823;28;46058;-63
2022/10/07 14:43:26;;;;;;;;;;;24.40;44.90;;;;;;4913335;28;44699;-63
2022/10/07 14:45:51;;;;;;;;;;;24.40;45.00;;;;;;4893991;28;45655;-63
2022/10/07 14:48:17;;;;;;;;;;;24.40;45.10;;;;;;4891196;28;45345;-63
2022/10/07 14:50:42;;;;;;;;;;;24.30;45.20;;;;;;4913074;28;45294;-63
2022/10/07 14:53:10;;;;;;;;;;;24.30;45.20;;;;;;4897934;28;45086;-62
2022/10/07 14:55:35;;;;;;;;;;;24.20;45.30;;;;;;4895161;28;45456;-63
2022/10/07 14:58:01;;;;;;;;;;;24.20;45.30;;;;;;4911128;28;46311;-62
2022/10/07 15:00:28;;;;;;;;;;;24.20;45.40;;;;;;4916045;28;46053;-63
2022/10/07 15:02:53;;;;;;;;;;;24.10;45.30;;;;;;4911069;28;45220;-63
2022/10/07 15:05:19;;;;;;;;;;;24.10;45.30;;;;;;4919398;28;45420;-63
2022/10/07 15:07:44;;;;;;;;;;;24.10;45.30;;;;;;4914884;28;45379;-63
2022/10/07 15:10:13;;;;;;;;;;;24.10;45.40;;;;;;4910125;28;47010;-63
2022/10/07 15:12:39;;;;;;;;;;;24.10;45.40;;;;;;4913774;28;45348;-63
2022/10/07 15:15:05;;;;;;;;;;;24.10;45.50;;;;;;4916806;28;45512;-63
2022/10/07 15:17:30;;;;;;;;;;;24.00;45.50;;;;;;4914720;28;45503;-63
2022/10/07 15:19:56;;;;;;;;;;;24.00;45.60;;;;;;4897041;28;46144;-63
2022/10/07 15:22:21;;;;;;;;;;;23.90;45.50;;;;;;4889726;28;45213;-63
2022/10/07 15:24:47;;;;;;;;;;;23.90;45.50;;;;;;4919456;28;45434;-63
2022/10/07 15:27:12;;;;;;;;;;;23.90;45.50;;;;;;4914236;28;45314;-63
2022/10/07 15:29:38;;;;;;;;;;;23.90;45.60;;;;;;4914356;28;46970;-63
2022/10/07 15:32:06;;;;;;;;;;;23.80;45.70;;;;;;4918866;28;45227;-63
2022/10/07 15:34:31;;;;;;;;;;;23.80;45.70;;;;;;4915953;28;45165;-63
2022/10/07 15:36:57;;;;;;;;;;;23.80;45.80;;;;;;4917847;28;45745;-63
2022/10/07 15:39:22;;;;;;;;;;;23.80;45.70;;;;;;4915594;28;46213;-63
2022/10/07 15:41:48;;;;;;;;;;;23.80;45.80;;;;;;4913924;28;45464;-63
2022/10/07 15:44:17;;;;;;;;;;;23.70;45.90;;;;;;4919717;28;45591;-62
2022/10/07 15:46:42;;;;;;;;;;;23.70;45.90;;;;;;4911176;28;45198;-63
2022/10/07 15:49:08;;;;;;;;;;;23.70;45.90;;;;;;4912800;28;46474;-62
2022/10/07 15:51:36;;;;;;;;;;;23.70;45.90;;;;;;4913785;28;45604;-62
2022/10/07 15:54:02;;;;;;;;;;;23.60;45.90;;;;;;4920177;28;45481;-62
2022/10/07 15:56:28;;;;;;;;;;;23.60;45.90;;;;;;4901722;28;45337;-63
2022/10/07 15:58:53;;;;;;;;;;;23.60;46.00;;;;;;4891839;28;47214;-62
2022/10/07 16:01:19;;;;;;;;;;;23.60;46.00;;;;;;4897021;28;45572;-63
2022/10/07 16:03:46;;;;;;;;;;;23.60;46.00;;;;;;4889360;28;45370;-63
2022/10/07 16:06:13;;;;;;;;;;;23.50;46.00;;;;;;4891423;28;45048;-63
2022/10/07 16:08:38;;;;;;;;;;;23.50;46.10;;;;;;4890781;29;45694;-62
2022/10/07 16:11:04;;;;;;;;;;;23.50;46.10;;;;;;4894016;28;44744;-62
2022/10/07 16:13:30;;;;;;;;;;;23.50;46.10;;;;;;4889393;28;45004;-63
2022/10/07 16:15:56;;;;;;;;;;;23.40;46.10;;;;;;4890858;28;45156;-62
2022/10/07 16:18:22;;;;;;;;;;;23.40;46.20;;;;;;4891436;28;47049;-62
2022/10/07 16:20:47;;;;;;;;;;;23.40;46.20;;;;;;4895649;28;45570;-63
2022/10/07 16:23:13;;;;;;;;;;;23.40;46.20;;;;;;4884529;28;45027;-63
2022/10/07 16:25:38;;;;;;;;;;;23.40;46.30;;;;;;4885809;28;45954;-63
2022/10/07 16:30:50;;;;;;;;;;;23.30;46.30;;;;;;4887915;28;45098;-62
2022/10/07 16:33:17;;;;;;;;;;;23.30;46.30;;;;;;4895528;28;45743;-63
2022/10/07 16:35:43;;;;;;;;;;;23.30;46.40;;;;;;4894271;28;45131;-62
2022/10/07 16:38:08;;;;;;;;;;;23.30;46.40;;;;;;4894229;28;46325;-63
2022/10/07 16:40:34;;;;;;;;;;;23.20;46.40;;;;;;4888750;28;45357;-63
2022/10/07 16:42:59;;;;;;;;;;;23.20;46.50;;;;;;4893852;28;45486;-63
2022/10/07 16:45:25;;;;;;;;;;;23.20;46.40;;;;;;4890978;28;45514;-62
2022/10/07 16:47:50;;;;;;;;;;;23.20;46.50;;;;;;4896962;28;46146;-63
2022/10/07 16:50:16;;;;;;;;;;;23.10;46.50;;;;;;4896884;28;45631;-63
2022/10/07 16:52:41;;;;;;;;;;;23.10;46.50;;;;;;4897755;28;44688;-63
2022/10/07 16:55:07;;;;;;;;;;;23.10;46.50;;;;;;4892489;28;46573;-62
2022/10/07 16:57:36;;;;;;;;;;;23.10;46.60;;;;;;4891543;28;46172;-62
2022/10/07 17:00:01;;;;;;;;;;;23.10;46.60;;;;;;4889817;28;45510;-62
2022/10/07 17:02:29;;;;;;;;;;;23.10;46.60;;;;;;4895677;28;45652;-63
2022/10/07 17:04:55;;;;;;;;;;;23.00;46.60;;;;;;4897360;28;45616;-63
2022/10/07 17:07:20;;;;;;;;;;;23.00;46.70;;;;;;4895617;28;45866;-63
2022/10/07 17:09:46;;;;;;;;;;;22.90;46.70;;;;;;4892204;28;45702;-62